KBVYKHPN

Guest
Details From KBVY - Beverly Muni
To KHPN - Westchester Co
Flight Number -
Tags Generated
Created
Modified
Stats Distance 155 nm / 287 km
Max Altitude 0 ft / 0 m
Waypoints 2
Social Downloads 0
Likes 0
Share VATSIM

Download

Looking for another format? Having issues loading an existing format? Contact us
Advertisement - Login to hide

Notes

Generated

Route

KBVY KHPN

ID Type Via Altitude Latitude Longitude Leg Dist Tot Dist Heading (true) Name
O KBVY APT - 0 ft / 0 m 42.59195˚ -70.92193˚ - 0 nm - -
O KHPN APT - 0 ft / 0 m 41.06705˚ -73.71576˚ 154 nm 154 nm 235° / 233° -

Altitude Profile

Advertisement - Login to hide

KBVY

Details ICAO KBVY (BVY)
Name BEVERLY MUNI
Region United States
Timezone America/New_York (UTC-4.0)
Stats Elevation 107 ft / 33 m (AMSL)
Location 42.584275° -70.916515°
Runways 2
Magnetic Variation 14.739° W

METAR

KBVY 240833Z AUTO 36003KT 4SM BR CLR 09/09 A3002 RMK AO2 T00940089

Decode

TAF

Not found

Departure Runways

ID Width Length Bearing (true) Bearing (mag) Surface Threshold Offset Overrun Length
09 150 ft / 46 m 4,991 ft / 1,521 m 74.22° 88.96° Asphalt 0 ft / 0 m 0 ft / 0 m
16 100 ft / 30 m 4,634 ft / 1,412 m 140.74° 155.48° Asphalt 239 ft / 73 m 0 ft / 0 m
27 150 ft / 46 m 4,991 ft / 1,521 m 254.24° 268.98° Asphalt 190 ft / 58 m 0 ft / 0 m
34 100 ft / 30 m 4,634 ft / 1,412 m 320.75° 335.49° Asphalt 0 ft / 0 m 0 ft / 0 m

KHPN

Details ICAO KHPN (HPN)
Name WESTCHESTER CO
Region United States
Timezone America/New_York (UTC-4.0)
Stats Elevation 439 ft / 134 m (AMSL)
Location 41.066758° -73.707617°
Runways 2
Magnetic Variation 13.117° W

METAR

KHPN 240756Z 30005KT 10SM CLR 14/11 A3003 RMK AO2 SLP166 T01440111

Decode

TAF

KHPN 240834Z 2409/2506 32005KT P6SM SKC FM241400 34009KT P6SM SKC FM242000 VRB04KT P6SM SKC FM242200 14006KT P6SM SKC FM250200 VRB03KT P6SM SKC AMD NOT SKED

Decode

Destination Runways

ID Width Length Bearing (true) Bearing (mag) Surface Threshold Offset Overrun Length
11 151 ft / 46 m 4,441 ft / 1,354 m 102.45° 115.57° Asphalt 0 ft / 0 m 0 ft / 0 m
16 151 ft / 46 m 6,551 ft / 1,997 m 149.99° 163.11° Asphalt 0 ft / 0 m 200 ft / 61 m
29 151 ft / 46 m 4,441 ft / 1,354 m 282.46° 295.58° Asphalt 1,296 ft / 395 m 0 ft / 0 m
34 151 ft / 46 m 6,551 ft / 1,997 m 330.00° 343.12° Asphalt 0 ft / 0 m 200 ft / 61 m

Approach Navaids

Runway Type Ident Frequency Range Bearing (true) Bearing (mag) Slope Elevation
16 Localiser IHPN 109.70 MHz 18 nm / 33 km 150.01° 163.13° - 439 ft / 134 m (AMSL)
16 Glidescope IHPN 109.70 MHz 10 nm / 19 km 150.00° 163.11° 3.00° 422 ft / 129 m (AMSL)
16 DME IHPN 109.70 MHz 18 nm / 33 km - - - 439 ft / 134 m (AMSL)
34 Localiser IQJZ 109.70 MHz 18 nm / 33 km 330.00° 343.11° - 439 ft / 134 m (AMSL)
34 Glidescope IQJZ 109.70 MHz 10 nm / 19 km 330.00° 343.11° 3.00° 377 ft / 115 m (AMSL)
34 DME IQJZ 109.70 MHz 18 nm / 33 km - - - 439 ft / 134 m (AMSL)